Time;durP1;ratioP1;P1;durP2;ratioP2;P2;SDS_P1;SDS_P2;PMS_P1;PMS_P2;Temp;Humidity;BMP_temperature;BMP_pressure;BME280_temperature;BME280_humidity;BME280_pressure;Samples;Min_cycle;Max_cycle;Signal;HPM_P1;HPM_P2
2021/07/22 00:00:07;;;;;;;9.48;5.47;;;16.00;99.90;;;;;;5028223;28;20055;-74
2021/07/22 00:02:33;;;;;;;8.10;5.45;;;16.00;99.90;;;;;;5029374;28;20118;-74
2021/07/22 00:04:59;;;;;;;8.27;5.60;;;16.00;99.90;;;;;;5045866;28;20020;-74
2021/07/22 00:07:24;;;;;;;9.13;5.70;;;16.00;99.90;;;;;;5046034;28;20112;-74
2021/07/22 00:09:50;;;;;;;8.90;5.53;;;16.00;99.90;;;;;;5025743;28;20020;-74
2021/07/22 00:12:18;;;;;;;7.95;5.70;;;15.90;99.90;;;;;;5047159;28;20147;-74
2021/07/22 00:14:44;;;;;;;8.75;5.38;;;15.90;99.90;;;;;;5046293;28;20051;-74
2021/07/22 00:17:10;;;;;;;7.70;5.57;;;15.90;99.90;;;;;;5046779;28;20033;-74
2021/07/22 00:19:38;;;;;;;8.82;5.50;;;15.80;99.90;;;;;;5047133;28;20029;-74
2021/07/22 00:22:04;;;;;;;8.00;5.38;;;15.80;99.90;;;;;;5046191;28;20048;-74
2021/07/22 00:24:31;;;;;;;9.73;5.97;;;15.80;99.90;;;;;;5029486;28;20037;-74
2021/07/22 00:26:59;;;;;;;8.68;5.75;;;15.80;99.90;;;;;;5011692;28;20472;-74
2021/07/22 00:29:30;;;;;;;8.15;5.38;;;15.80;99.90;;;;;;5046358;28;20044;-74
2021/07/22 00:31:57;;;;;;;8.00;5.82;;;15.80;99.90;;;;;;5046771;28;20171;-74
2021/07/22 00:34:25;;;;;;;7.82;5.47;;;15.80;99.90;;;;;;5029004;28;20021;-74
2021/07/22 00:36:53;;;;;;;9.48;6.00;;;15.80;99.90;;;;;;5003783;28;20462;-74
2021/07/22 00:39:18;;;;;;;9.57;5.70;;;15.80;99.90;;;;;;5045630;28;20029;-74
2021/07/22 00:41:44;;;;;;;9.55;5.75;;;15.70;99.90;;;;;;5028898;28;20688;-74
2021/07/22 00:44:10;;;;;;;9.13;6.00;;;15.70;99.90;;;;;;5062854;28;20070;-74
2021/07/22 00:46:35;;;;;;;8.77;5.32;;;15.70;99.90;;;;;;5061607;28;20060;-74
2021/07/22 00:49:01;;;;;;;8.52;5.65;;;15.70;99.90;;;;;;5045710;28;20103;-74
2021/07/22 00:51:27;;;;;;;9.35;5.65;;;15.70;99.90;;;;;;5031609;28;20122;-74
2021/07/22 00:53:52;;;;;;;8.88;5.72;;;15.60;99.90;;;;;;5050031;28;20512;-74
2021/07/22 00:56:18;;;;;;;9.50;5.97;;;15.60;99.90;;;;;;5049972;28;20036;-74
2021/07/22 00:58:43;;;;;;;9.05;5.55;;;15.60;99.90;;;;;;5017968;28;20052;-74
2021/07/22 01:01:14;;;;;;;8.98;5.63;;;15.60;99.90;;;;;;5049509;28;20033;-74
2021/07/22 01:03:39;;;;;;;8.60;5.65;;;15.60;99.90;;;;;;5050090;28;20040;-74
2021/07/22 01:06:07;;;;;;;9.73;5.93;;;15.50;99.90;;;;;;5049917;28;20024;-74
2021/07/22 01:08:35;;;;;;;8.63;5.70;;;15.50;99.90;;;;;;5050118;28;20033;-74
2021/07/22 01:11:01;;;;;;;8.98;5.68;;;15.50;99.90;;;;;;5050102;28;20029;-74
2021/07/22 01:13:27;;;;;;;8.52;5.60;;;15.50;99.90;;;;;;5048899;28;20620;-74
2021/07/22 01:15:53;;;;;;;10.05;5.80;;;15.50;99.90;;;;;;5050579;28;20032;-74
2021/07/22 01:18:18;;;;;;;8.73;5.60;;;15.50;99.90;;;;;;4998449;28;20386;-74
2021/07/22 01:20:46;;;;;;;8.30;5.47;;;15.40;99.90;;;;;;5031859;28;20071;-74
2021/07/22 01:23:14;;;;;;;9.48;5.93;;;15.40;99.90;;;;;;5035936;28;20032;-74
2021/07/22 01:25:42;;;;;;;8.43;5.78;;;15.40;99.90;;;;;;5050073;28;20065;-74
2021/07/22 01:28:08;;;;;;;7.78;5.68;;;15.40;99.90;;;;;;5064099;28;20028;-74
2021/07/22 01:30:34;;;;;;;8.23;5.90;;;15.40;99.90;;;;;;5049093;28;20048;-74
2021/07/22 01:33:01;;;;;;;9.40;5.78;;;15.40;99.90;;;;;;5050048;28;20025;-74
2021/07/22 01:35:27;;;;;;;9.65;5.80;;;15.40;99.90;;;;;;5049470;28;20056;-74
2021/07/22 01:37:53;;;;;;;8.02;5.80;;;15.40;99.90;;;;;;5050315;28;20103;-74
2021/07/22 01:40:18;;;;;;;9.98;6.00;;;15.40;99.90;;;;;;5031255;28;20029;-74
2021/07/22 01:42:44;;;;;;;8.07;5.80;;;15.30;99.90;;;;;;5050055;28;20037;-74
2021/07/22 01:45:11;;;;;;;8.40;6.07;;;15.30;99.90;;;;;;5015738;28;20044;-74
2021/07/22 01:47:39;;;;;;;9.35;6.40;;;15.30;99.90;;;;;;5047905;28;20029;-73
2021/07/22 01:50:09;;;;;;;8.35;6.28;;;15.30;99.90;;;;;;5049822;28;20037;-74
2021/07/22 01:52:35;;;;;;;7.90;5.80;;;15.20;99.90;;;;;;5049361;28;20021;-74
2021/07/22 01:55:00;;;;;;;9.82;5.88;;;15.30;99.90;;;;;;5030257;28;20055;-74
2021/07/22 01:57:28;;;;;;;7.90;5.65;;;15.30;99.90;;;;;;5048846;28;20048;-74
2021/07/22 02:00:01;;;;;;;9.70;6.10;;;15.20;99.90;;;;;;5050129;28;20103;-74
2021/07/22 02:02:27;;;;;;;8.70;6.00;;;15.20;99.90;;;;;;5032438;28;20069;-74
2021/07/22 02:05:03;;;;;;;9.18;6.63;;;15.20;99.90;;;;;;5047770;28;20083;-75
2021/07/22 02:07:31;;;;;;;10.88;6.20;;;15.20;99.90;;;;;;5016416;28;20029;-74
2021/07/22 02:09:58;;;;;;;9.32;6.00;;;15.20;99.90;;;;;;5048191;28;20032;-74
2021/07/22 02:12:27;;;;;;;8.35;5.95;;;15.20;99.90;;;;;;5049646;28;20032;-74
2021/07/22 02:14:52;;;;;;;8.93;5.78;;;15.10;99.90;;;;;;5030988;28;20507;-74
2021/07/22 02:17:18;;;;;;;10.32;6.30;;;15.10;99.90;;;;;;5049154;28;20044;-74
2021/07/22 02:19:45;;;;;;;8.90;6.30;;;15.10;99.90;;;;;;5049163;28;20039;-75
2021/07/22 02:22:10;;;;;;;9.95;6.35;;;15.10;99.90;;;;;;5048577;28;20096;-75
2021/07/22 02:24:36;;;;;;;9.98;6.47;;;15.10;99.90;;;;;;5048668;28;20152;-74
2021/07/22 02:27:02;;;;;;;9.00;6.13;;;15.10;99.90;;;;;;5046906;28;20024;-74
2021/07/22 02:29:32;;;;;;;10.50;6.10;;;15.10;99.90;;;;;;5048028;28;20045;-74
2021/07/22 02:32:02;;;;;;;9.60;6.95;;;15.10;99.90;;;;;;5048554;28;20139;-74
2021/07/22 02:34:28;;;;;;;9.90;6.82;;;15.00;99.90;;;;;;5030050;28;20040;-74
2021/07/22 02:36:56;;;;;;;9.52;6.07;;;15.00;99.90;;;;;;5048442;28;20473;-74
2021/07/22 02:39:21;;;;;;;9.43;6.43;;;15.00;99.90;;;;;;5065220;28;20496;-74
2021/07/22 02:41:49;;;;;;;9.52;6.45;;;15.00;99.90;;;;;;5048281;28;20115;-74
2021/07/22 02:44:19;;;;;;;8.63;6.28;;;15.00;99.90;;;;;;5047479;28;20048;-74
2021/07/22 02:46:49;;;;;;;8.63;6.38;;;15.00;99.90;;;;;;5048728;28;20119;-74
2021/07/22 02:49:17;;;;;;;9.02;6.45;;;15.00;99.90;;;;;;5048701;28;20028;-74
2021/07/22 02:51:45;;;;;;;10.13;6.32;;;15.00;99.90;;;;;;5048752;28;20766;-74
2021/07/22 02:54:12;;;;;;;8.10;5.65;;;15.00;99.90;;;;;;5047334;28;20510;-74
2021/07/22 02:56:38;;;;;;;8.35;6.10;;;14.90;99.90;;;;;;5049176;28;20515;-74
2021/07/22 02:59:05;;;;;;;9.60;6.50;;;14.90;99.90;;;;;;5046402;28;20064;-74
2021/07/22 03:01:33;;;;;;;10.68;6.68;;;14.90;99.90;;;;;;5047274;28;20044;-74
2021/07/22 03:04:04;;;;;;;8.60;6.10;;;14.90;99.90;;;;;;5047808;28;20377;-74
2021/07/22 03:06:30;;;;;;;9.13;6.30;;;14.90;99.90;;;;;;5048206;28;20028;-74
2021/07/22 03:08:55;;;;;;;11.45;6.70;;;14.90;99.90;;;;;;5029045;28;20047;-75
2021/07/22 03:11:21;;;;;;;9.80;6.10;;;14.90;99.90;;;;;;5047894;28;20103;-74
2021/07/22 03:13:49;;;;;;;9.40;6.43;;;14.90;99.90;;;;;;5062496;28;20033;-74
2021/07/22 03:16:16;;;;;;;8.93;5.82;;;14.90;99.90;;;;;;5030367;28;20043;-74
2021/07/22 03:18:42;;;;;;;9.55;6.45;;;14.90;99.90;;;;;;5046860;28;20786;-75
2021/07/22 03:21:11;;;;;;;10.27;6.38;;;14.80;99.90;;;;;;5048812;28;20034;-74
2021/07/22 03:23:36;;;;;;;8.55;6.00;;;14.80;99.90;;;;;;5046528;28;20669;-74
2021/07/22 03:26:02;;;;;;;9.90;6.55;;;14.80;99.90;;;;;;5046809;28;20048;-74
2021/07/22 03:28:28;;;;;;;9.90;6.40;;;14.80;99.90;;;;;;5046352;28;20058;-74
2021/07/22 03:30:53;;;;;;;8.35;5.93;;;14.80;99.90;;;;;;5028285;28;20036;-74
2021/07/22 03:33:19;;;;;;;9.10;6.28;;;14.80;99.90;;;;;;5046694;28;20021;-74
2021/07/22 03:35:44;;;;;;;9.45;6.15;;;14.80;99.90;;;;;;5028594;28;20033;-74
2021/07/22 03:38:13;;;;;;;10.32;6.20;;;14.80;99.90;;;;;;5027397;28;20037;-74
2021/07/22 03:40:40;;;;;;;8.20;6.20;;;14.80;99.90;;;;;;5045376;28;20063;-74
2021/07/22 03:43:08;;;;;;;9.02;6.13;;;14.80;99.90;;;;;;5029245;28;20037;-74
2021/07/22 03:45:34;;;;;;;9.10;5.93;;;14.80;99.90;;;;;;5046219;28;20036;-74
2021/07/22 03:48:03;;;;;;;9.32;6.07;;;14.80;99.90;;;;;;5047300;28;20095;-74
2021/07/22 03:50:28;;;;;;;10.80;7.00;;;14.80;99.90;;;;;;5026770;28;20029;-74
2021/07/22 03:52:57;;;;;;;9.70;6.70;;;14.80;99.90;;;;;;5046641;28;20091;-74
2021/07/22 03:55:26;;;;;;;9.32;6.47;;;14.80;99.90;;;;;;5013348;28;20450;-73
2021/07/22 03:57:54;;;;;;;8.27;5.90;;;14.80;99.90;;;;;;5046860;28;20059;-74
2021/07/22 04:00:24;;;;;;;10.35;6.43;;;14.70;99.90;;;;;;5030105;28;20033;-74
2021/07/22 04:03:02;;;;;;;10.48;6.80;;;14.80;99.90;;;;;;5045337;28;20037;-74
2021/07/22 04:05:28;;;;;;;9.45;6.55;;;14.80;99.90;;;;;;5047376;28;20028;-74
2021/07/22 04:07:57;;;;;;;9.63;6.18;;;14.80;99.90;;;;;;5013767;28;20052;-74
2021/07/22 04:10:23;;;;;;;8.70;6.20;;;14.70;99.90;;;;;;5013404;28;20104;-74
2021/07/22 04:12:56;;;;;;;10.02;6.05;;;14.80;99.90;;;;;;5047029;28;20062;-74
2021/07/22 04:15:23;;;;;;;9.57;6.60;;;14.80;99.90;;;;;;5028293;28;20025;-74
2021/07/22 04:17:51;;;;;;;9.52;6.22;;;14.80;99.90;;;;;;5045174;28;20124;-74
2021/07/22 04:20:20;;;;;;;8.52;6.28;;;14.80;99.90;;;;;;5026805;28;20131;-74
2021/07/22 04:22:48;;;;;;;8.80;6.32;;;14.80;99.90;;;;;;5044964;28;20045;-74
2021/07/22 04:25:16;;;;;;;9.23;6.60;;;14.80;99.90;;;;;;5045514;28;20362;-74
2021/07/22 04:27:42;;;;;;;9.73;6.32;;;14.80;99.90;;;;;;5026977;28;20120;-74
2021/07/22 04:30:10;;;;;;;9.02;6.32;;;14.80;99.90;;;;;;5060345;28;20033;-74
2021/07/22 04:32:36;;;;;;;9.35;6.63;;;14.80;99.90;;;;;;5045945;28;20274;-74
2021/07/22 04:35:03;;;;;;;8.07;6.25;;;14.90;99.90;;;;;;5027329;28;20032;-74
2021/07/22 04:37:29;;;;;;;8.68;6.60;;;14.90;99.90;;;;;;5046037;28;20033;-74
2021/07/22 04:39:54;;;;;;;11.38;6.40;;;14.90;99.90;;;;;;5028851;28;20044;-74
2021/07/22 04:42:20;;;;;;;9.10;6.68;;;14.90;99.90;;;;;;5045879;28;20032;-74
2021/07/22 04:44:45;;;;;;;10.15;7.05;;;14.90;99.90;;;;;;5043797;28;20029;-74
2021/07/22 04:47:13;;;;;;;10.07;6.68;;;15.00;99.90;;;;;;5046564;28;20044;-74
2021/07/22 04:49:39;;;;;;;9.13;6.15;;;15.00;99.90;;;;;;5045416;28;20040;-74
2021/07/22 04:52:04;;;;;;;9.40;6.65;;;15.00;99.90;;;;;;5046384;28;20461;-74
2021/07/22 04:54:30;;;;;;;11.05;6.50;;;15.00;99.90;;;;;;5046533;28;20039;-74
2021/07/22 04:56:58;;;;;;;9.60;6.38;;;15.00;99.90;;;;;;5047076;28;20037;-74
2021/07/22 04:59:27;;;;;;;10.20;6.75;;;15.10;99.90;;;;;;5045173;28;20462;-74
2021/07/22 05:01:52;;;;;;;8.52;6.60;;;15.10;99.90;;;;;;5045804;28;20040;-74
2021/07/22 05:04:23;;;;;;;8.48;6.40;;;15.10;99.90;;;;;;5046120;28;20036;-74
2021/07/22 05:06:48;;;;;;;8.90;6.63;;;15.10;99.90;;;;;;5045344;28;20120;-74
2021/07/22 05:09:14;;;;;;;12.25;6.95;;;15.20;99.90;;;;;;5045722;28;20037;-74
2021/07/22 05:11:42;;;;;;;10.02;6.80;;;15.20;99.90;;;;;;5046005;28;20413;-74
2021/07/22 05:14:11;;;;;;;11.70;6.88;;;15.20;99.90;;;;;;5013239;28;20025;-74
2021/07/22 05:16:38;;;;;;;9.55;6.90;;;15.30;99.90;;;;;;5046250;28;20418;-74
2021/07/22 05:19:06;;;;;;;9.43;6.57;;;15.30;99.90;;;;;;5045649;28;20529;-74
2021/07/22 05:21:32;;;;;;;11.00;6.68;;;15.40;99.90;;;;;;5046372;28;20040;-74
2021/07/22 05:23:57;;;;;;;9.60;6.93;;;15.40;99.90;;;;;;5045953;28;20033;-74
2021/07/22 05:26:23;;;;;;;10.32;6.85;;;15.40;99.90;;;;;;5045749;28;20091;-74
2021/07/22 05:28:51;;;;;;;10.52;6.82;;;15.50;99.90;;;;;;5044144;28;20412;-73
2021/07/22 05:31:16;;;;;;;10.10;7.05;;;15.50;99.90;;;;;;5028634;28;20576;-74
2021/07/22 05:33:44;;;;;;;12.10;6.90;;;15.50;99.90;;;;;;5045724;28;20121;-74
2021/07/22 05:36:10;;;;;;;8.52;6.32;;;15.60;99.90;;;;;;5028411;28;20059;-74
2021/07/22 05:38:38;;;;;;;11.70;7.10;;;15.60;99.90;;;;;;5049475;28;20494;-73
2021/07/22 05:41:07;;;;;;;9.88;6.75;;;15.70;99.90;;;;;;5050650;28;20041;-74
2021/07/22 05:43:35;;;;;;;11.00;7.10;;;15.70;99.90;;;;;;5047791;28;20433;-74
2021/07/22 05:46:03;;;;;;;11.23;6.68;;;15.80;99.90;;;;;;5048906;28;20033;-74
2021/07/22 05:48:31;;;;;;;10.93;6.85;;;15.80;99.90;;;;;;5031240;28;20052;-74
2021/07/22 05:51:03;;;;;;;11.73;7.60;;;15.90;99.90;;;;;;5048283;28;20056;-74
2021/07/22 05:53:28;;;;;;;10.35;7.13;;;15.90;99.90;;;;;;5063999;28;20032;-74
2021/07/22 05:55:58;;;;;;;11.02;7.13;;;16.00;99.90;;;;;;5048375;28;20043;-74
2021/07/22 05:58:24;;;;;;;9.52;6.78;;;16.00;99.90;;;;;;5046923;28;20132;-74
2021/07/22 06:00:49;;;;;;;11.80;6.93;;;16.10;99.90;;;;;;5047485;28;20469;-74
2021/07/22 06:03:17;;;;;;;12.00;7.47;;;16.10;99.90;;;;;;5048648;28;20032;-74
2021/07/22 06:05:45;;;;;;;10.50;6.82;;;16.20;99.90;;;;;;5015863;28;20029;-74
2021/07/22 06:08:10;;;;;;;11.10;6.95;;;16.20;99.90;;;;;;5047564;28;20098;-74
2021/07/22 06:10:37;;;;;;;11.20;7.15;;;16.30;99.90;;;;;;5032560;28;20033;-74
2021/07/22 06:13:03;;;;;;;9.32;6.60;;;16.30;99.90;;;;;;5045008;28;20707;-75
2021/07/22 06:15:29;;;;;;;10.77;7.22;;;16.40;99.90;;;;;;5048224;28;20029;-72
2021/07/22 06:17:54;;;;;;;12.73;7.93;;;16.50;99.90;;;;;;5029275;28;20044;-70
2021/07/22 06:20:20;;;;;;;10.02;6.78;;;16.50;99.90;;;;;;5048153;28;20029;-74
2021/07/22 06:22:48;;;;;;;9.65;7.13;;;16.60;99.90;;;;;;5026353;28;20071;-74
2021/07/22 06:25:14;;;;;;;12.13;7.78;;;16.70;99.90;;;;;;5029881;28;20079;-74
2021/07/22 06:27:43;;;;;;;11.95;7.45;;;16.80;99.90;;;;;;5045282;28;20412;-74
2021/07/22 06:30:09;;;;;;;9.23;7.10;;;16.80;99.90;;;;;;5063564;28;20037;-74
2021/07/22 06:32:37;;;;;;;11.43;8.27;;;16.90;99.90;;;;;;5046787;28;20067;-69
2021/07/22 06:35:06;;;;;;;11.30;8.30;;;16.90;99.90;;;;;;5046863;28;20477;-69
2021/07/22 06:37:51;;;;;;;11.43;7.65;;;17.00;99.90;;;;;;5046654;28;20041;-73
2021/07/22 06:40:17;;;;;;;10.23;7.40;;;17.00;99.90;;;;;;5046351;28;20122;-73
2021/07/22 06:42:43;;;;;;;10.10;7.15;;;17.10;99.90;;;;;;5045248;28;20025;-73
2021/07/22 06:45:09;;;;;;;10.50;7.65;;;17.10;99.90;;;;;;5062079;28;20032;-72
2021/07/22 06:47:39;;;;;;;10.43;7.40;;;17.20;99.90;;;;;;5029263;28;20511;-73
2021/07/22 06:50:08;;;;;;;10.73;7.82;;;17.20;99.90;;;;;;5062131;28;20090;-74
2021/07/22 06:52:39;;;;;;;9.90;7.55;;;17.20;99.90;;;;;;5062532;28;20052;-73
2021/07/22 06:55:07;;;;;;;10.55;7.40;;;17.30;99.90;;;;;;5028484;28;20021;-72
2021/07/22 06:57:35;;;;;;;12.38;9.18;;;17.30;99.90;;;;;;5046653;28;20053;-74
2021/07/22 07:00:04;;;;;;;21.55;17.45;;;17.40;99.90;;;;;;5046243;28;20025;-74
2021/07/22 07:02:29;;;;;;;12.82;10.18;;;17.50;99.90;;;;;;5045107;28;20163;-73
2021/07/22 07:04:58;;;;;;;10.50;7.32;;;17.50;99.90;;;;;;5046623;28;20033;-74
2021/07/22 07:07:23;;;;;;;9.23;6.88;;;17.50;99.90;;;;;;5047618;28;20123;-74
2021/07/22 07:09:49;;;;;;;10.65;7.38;;;17.60;99.90;;;;;;5029475;28;20039;-74
2021/07/22 07:12:15;;;;;;;10.00;7.38;;;17.60;99.90;;;;;;5028655;28;20060;-76
2021/07/22 07:14:43;;;;;;;10.23;7.60;;;17.70;99.90;;;;;;5045882;28;20118;-73
2021/07/22 07:17:10;;;;;;;10.70;7.57;;;17.80;99.90;;;;;;5027739;28;20443;-73
2021/07/22 07:19:36;;;;;;;9.55;6.80;;;17.80;99.90;;;;;;5046847;28;20036;-74
2021/07/22 07:22:04;;;;;;;19.67;16.27;;;17.90;99.90;;;;;;5028137;28;20029;-69
2021/07/22 07:24:30;;;;;;;14.65;12.15;;;18.00;99.90;;;;;;5045981;28;20029;-73
2021/07/22 07:26:56;;;;;;;11.05;7.57;;;18.00;99.90;;;;;;5015184;28;20118;-73
2021/07/22 07:29:21;;;;;;;9.75;7.30;;;18.10;99.90;;;;;;5028044;28;20997;-74
2021/07/22 07:31:47;;;;;;;9.23;7.35;;;18.20;99.90;;;;;;5027934;28;20500;-76
2021/07/22 07:34:15;;;;;;;10.23;7.32;;;18.30;99.90;;;;;;5028884;28;20028;-69
2021/07/22 07:36:44;;;;;;;11.57;7.65;;;18.40;99.90;;;;;;5046225;28;20049;-70
2021/07/22 07:39:11;;;;;;;12.95;9.90;;;18.40;99.90;;;;;;5061147;28;20458;-74
2021/07/22 07:41:39;;;;;;;10.65;7.80;;;18.50;99.90;;;;;;5012081;28;20135;-74
2021/07/22 07:44:05;;;;;;;9.60;7.40;;;18.60;99.90;;;;;;5046213;28;20130;-73
2021/07/22 07:46:35;;;;;;;8.75;6.97;;;18.80;99.90;;;;;;5046270;28;20045;-73
2021/07/22 07:49:02;;;;;;;9.15;6.65;;;18.90;99.90;;;;;;5030083;28;20025;-74
2021/07/22 07:51:30;;;;;;;11.50;7.72;;;19.00;98.90;;;;;;5045280;28;20051;-73
2021/07/22 07:53:59;;;;;;;8.75;7.00;;;19.10;99.90;;;;;;5062021;28;20032;-73
2021/07/22 07:56:27;;;;;;;9.00;6.50;;;19.20;99.90;;;;;;5044579;28;20119;-73
2021/07/22 07:58:52;;;;;;;8.60;6.60;;;19.40;99.90;;;;;;5044611;28;20084;-73
2021/07/22 08:01:22;;;;;;;10.00;6.90;;;19.60;99.90;;;;;;5045304;28;20417;-73
2021/07/22 08:03:49;;;;;;;10.13;7.05;;;19.80;99.90;;;;;;5045888;28;20037;-73
2021/07/22 08:06:15;;;;;;;9.77;7.13;;;20.00;99.90;;;;;;5060532;28;20462;-73
2021/07/22 08:08:43;;;;;;;10.20;7.30;;;20.20;99.90;;;;;;5045338;28;20044;-73
2021/07/22 08:11:11;;;;;;;10.75;6.85;;;20.40;99.90;;;;;;5028126;28;20044;-69
2021/07/22 08:13:38;;;;;;;11.70;8.32;;;20.50;99.60;;;;;;5045551;28;20537;-69
2021/07/22 08:16:07;;;;;;;11.65;7.95;;;20.60;98.90;;;;;;5059260;28;20074;-74
2021/07/22 08:18:32;;;;;;;9.50;6.82;;;20.80;99.90;;;;;;5045078;28;20083;-73
2021/07/22 08:20:58;;;;;;;9.07;6.47;;;20.90;97.50;;;;;;5045053;28;20033;-74
2021/07/22 08:23:24;;;;;;;9.00;6.72;;;21.00;99.10;;;;;;5060934;28;20033;-73
2021/07/22 08:25:52;;;;;;;9.27;6.50;;;21.20;99.90;;;;;;5060567;28;20365;-73
2021/07/22 08:28:17;;;;;;;11.40;6.90;;;21.20;99.90;;;;;;5045475;28;20425;-73
2021/07/22 08:30:43;;;;;;;9.27;6.53;;;21.40;99.90;;;;;;5060593;28;20028;-73
2021/07/22 08:33:08;;;;;;;8.18;6.20;;;21.50;99.90;;;;;;5045116;28;20095;-73
2021/07/22 08:35:39;;;;;;;9.73;6.60;;;21.60;99.90;;;;;;5026672;28;20873;-73
2021/07/22 08:38:04;;;;;;;8.77;6.38;;;21.70;95.40;;;;;;5025470;28;20039;-73
2021/07/22 08:40:30;;;;;;;8.98;6.03;;;21.80;96.80;;;;;;5045457;28;20036;-73
2021/07/22 08:43:01;;;;;;;8.38;6.10;;;21.90;93.30;;;;;;5026686;28;20032;-73
2021/07/22 08:45:29;;;;;;;8.70;6.13;;;21.80;83.70;;;;;;5017973;28;20072;-73
2021/07/22 08:47:58;;;;;;;8.85;6.55;;;21.70;86.90;;;;;;5042263;28;20048;-73
2021/07/22 08:50:24;;;;;;;9.82;6.40;;;21.80;93.10;;;;;;5026523;28;20036;-73
2021/07/22 08:52:52;;;;;;;9.57;6.78;;;21.90;93.40;;;;;;5045280;28;20083;-73
2021/07/22 08:55:21;;;;;;;8.63;6.50;;;22.00;91.90;;;;;;5046006;28;20029;-73
2021/07/22 08:57:47;;;;;;;9.45;6.85;;;22.10;93.70;;;;;;5045648;28;20145;-73
2021/07/22 09:00:15;;;;;;;8.95;6.72;;;22.10;90.00;;;;;;5027044;28;20031;-73
2021/07/22 09:02:44;;;;;;;9.88;6.38;;;22.20;92.10;;;;;;5028093;28;20040;-73
2021/07/22 09:05:10;;;;;;;9.60;6.85;;;22.30;92.10;;;;;;5012541;28;20031;-73
2021/07/22 09:07:36;;;;;;;8.95;6.70;;;22.30;91.10;;;;;;5046025;28;20092;-74
2021/07/22 09:10:07;;;;;;;8.65;6.50;;;22.40;89.40;;;;;;5026835;28;20453;-73
2021/07/22 09:12:47;;;;;;;10.48;6.90;;;22.40;85.90;;;;;;5063586;28;20429;-75
2021/07/22 09:15:13;;;;;;;9.40;7.03;;;22.50;87.30;;;;;;5063589;28;20029;-75
2021/07/22 09:17:41;;;;;;;10.93;7.15;;;22.50;87.90;;;;;;5033378;28;20029;-75
2021/07/22 09:20:13;;;;;;;9.45;6.50;;;22.60;82.60;;;;;;5036348;28;20028;-75
2021/07/22 09:22:40;;;;;;;10.05;6.85;;;22.60;83.70;;;;;;5064168;28;20036;-75
2021/07/22 09:25:11;;;;;;;10.90;7.70;;;22.70;85.30;;;;;;5047025;28;20517;-75
2021/07/22 09:27:44;;;;;;;10.18;7.10;;;22.80;85.00;;;;;;5046287;28;20033;-74
2021/07/22 09:30:16;;;;;;;9.95;7.03;;;22.80;86.40;;;;;;5064349;28;20036;-74
2021/07/22 09:32:44;;;;;;;9.07;6.72;;;22.90;87.40;;;;;;5028983;28;20443;-75
2021/07/22 09:35:12;;;;;;;9.77;6.93;;;23.00;89.50;;;;;;5029068;28;20347;-74
2021/07/22 09:37:42;;;;;;;9.15;6.88;;;23.10;88.10;;;;;;5030702;28;20095;-74
2021/07/22 09:40:09;;;;;;;8.93;6.93;;;23.10;80.80;;;;;;5046596;28;20021;-74
2021/07/22 09:42:50;;;;;;;10.20;7.13;;;23.30;86.30;;;;;;5030066;28;20025;-75
2021/07/22 09:45:23;;;;;;;9.00;6.90;;;23.40;82.60;;;;;;5064447;28;20152;-70
2021/07/22 09:47:49;;;;;;;10.63;7.60;;;23.50;86.60;;;;;;5046153;28;20047;-71
2021/07/22 09:50:18;;;;;;;15.13;12.13;;;23.70;89.30;;;;;;5064612;28;20120;-76
2021/07/22 09:52:45;;;;;;;9.85;7.68;;;23.70;83.60;;;;;;5061391;28;20021;-74
2021/07/22 09:55:29;;;;;;;9.70;6.65;;;23.80;85.40;;;;;;5029103;28;20032;-74
2021/07/22 09:57:59;;;;;;;10.02;7.15;;;23.90;79.90;;;;;;5063167;28;20156;-75
2021/07/22 10:00:28;;;;;;;10.07;6.88;;;24.00;85.60;;;;;;5063414;28;20083;-74
2021/07/22 10:02:55;;;;;;;8.95;6.65;;;24.10;85.30;;;;;;5045115;28;20234;-70
2021/07/22 10:05:57;;;;;;;10.07;7.10;;;24.20;77.90;;;;;;5063315;28;20016;-69
2021/07/22 10:08:25;;;;;;;10.25;8.02;;;24.20;79.00;;;;;;5045813;28;20036;-74
2021/07/22 10:10:56;;;;;;;9.95;7.60;;;24.30;76.80;;;;;;5062381;28;20035;-74
2021/07/22 10:13:27;;;;;;;9.60;6.97;;;24.40;79.10;;;;;;5047694;28;20032;-74
2021/07/22 10:15:54;;;;;;;9.55;7.05;;;24.50;78.20;;;;;;5060997;28;20044;-74
2021/07/22 10:18:21;;;;;;;9.15;7.22;;;24.50;73.10;;;;;;5029174;28;20029;-73
2021/07/22 10:20:52;;;;;;;8.73;6.70;;;24.40;72.70;;;;;;5031978;28;20553;-72
2021/07/22 10:23:22;;;;;;;8.82;6.78;;;24.40;72.70;;;;;;4713541;28;10000162;-73
2021/07/22 10:25:51;;;;;;;10.98;7.28;;;24.50;73.10;;;;;;5044283;28;20033;-72
2021/07/22 10:28:19;;;;;;;10.18;7.20;;;24.50;74.10;;;;;;5045802;28;20120;-73
2021/07/22 10:30:46;;;;;;;10.10;7.05;;;24.50;75.00;;;;;;5061738;28;20039;-73
2021/07/22 10:33:11;;;;;;;8.55;6.68;;;24.40;68.60;;;;;;5029704;28;20044;-73
2021/07/22 10:35:37;;;;;;;8.48;6.95;;;24.50;74.60;;;;;;5045290;28;20056;-75
2021/07/22 10:38:13;;;;;;;9.82;6.78;;;24.50;73.10;;;;;;5011872;28;20413;-73
2021/07/22 10:40:52;;;;;;;9.02;6.80;;;24.40;72.70;;;;;;5046352;28;20035;-74
2021/07/22 10:43:36;;;;;;;8.82;6.93;;;24.40;71.90;;;;;;5028572;28;20032;-74
2021/07/22 10:46:05;;;;;;;9.48;7.10;;;24.30;72.30;;;;;;5046131;28;20549;-74
2021/07/22 10:48:34;;;;;;;9.52;6.78;;;24.30;76.10;;;;;;5061128;28;20041;-74
2021/07/22 10:51:03;;;;;;;9.77;7.18;;;24.40;72.30;;;;;;5045458;28;20029;-73
2021/07/22 10:53:51;;;;;;;8.68;6.57;;;24.40;71.70;;;;;;5060931;28;20025;-74
2021/07/22 10:56:17;;;;;;;8.85;6.70;;;24.30;71.10;;;;;;5046447;28;20641;-74
2021/07/22 10:58:42;;;;;;;10.02;7.07;;;24.40;72.00;;;;;;5046564;28;20044;-74
2021/07/22 11:01:12;;;;;;;9.65;6.82;;;24.40;74.20;;;;;;4347480;28;10000337;-70
2021/07/22 11:03:41;;;;;;;12.60;9.88;;;24.50;73.90;;;;;;5027891;28;20033;-71
2021/07/22 11:06:09;;;;;;;8.98;6.72;;;24.60;75.70;;;;;;5045515;28;20035;-70
2021/07/22 11:08:38;;;;;;;10.60;6.70;;;24.60;70.90;;;;;;5044125;28;20029;-75
2021/07/22 11:11:10;;;;;;;10.98;7.00;;;24.70;73.00;;;;;;5059827;28;20036;-75
2021/07/22 11:13:40;;;;;;;8.48;6.88;;;24.70;69.90;;;;;;5045140;28;20032;-75
2021/07/22 11:16:06;;;;;;;9.52;6.95;;;24.70;67.50;;;;;;5045436;28;20122;-74
2021/07/22 11:19:07;;;;;;;9.00;6.85;;;24.80;72.50;;;;;;5045403;28;20082;-74
2021/07/22 11:21:54;;;;;;;10.32;7.38;;;24.90;69.80;;;;;;5039559;28;20135;-76
2021/07/22 11:24:23;;;;;;;11.05;6.82;;;25.00;68.50;;;;;;5044953;28;20078;-75
2021/07/22 11:26:55;;;;;;;9.25;6.78;;;24.90;69.40;;;;;;5027180;28;20033;-76
2021/07/22 11:29:24;;;;;;;9.57;6.95;;;25.00;70.90;;;;;;5061806;28;20140;-76
2021/07/22 11:32:02;;;;;;;10.15;6.75;;;24.90;67.10;;;;;;5044658;28;20135;-74
2021/07/22 11:34:30;;;;;;;9.82;6.72;;;24.90;70.30;;;;;;5029166;28;20025;-75
2021/07/22 11:36:57;;;;;;;9.20;6.90;;;24.80;68.90;;;;;;5061574;28;20500;-75
2021/07/22 11:39:41;;;;;;;8.88;6.55;;;24.80;72.60;;;;;;5061402;28;20483;-75
2021/07/22 11:42:14;;;;;;;8.13;6.75;;;24.70;72.30;;;;;;5026197;28;20098;-76
2021/07/22 11:44:40;;;;;;;11.15;6.60;;;24.60;72.30;;;;;;5061070;28;20743;-75
2021/07/22 11:47:15;;;;;;;9.25;6.53;;;24.50;72.00;;;;;;5004624;28;20123;-75
2021/07/22 11:49:45;;;;;;;9.52;6.45;;;24.70;74.60;;;;;;5026894;28;20482;-74
2021/07/22 11:52:11;;;;;;;8.98;6.95;;;24.70;73.70;;;;;;5045158;28;20039;-75
2021/07/22 11:54:36;;;;;;;9.15;6.50;;;24.80;72.40;;;;;;5027233;28;20033;-75
2021/07/22 11:57:04;;;;;;;8.30;6.60;;;24.80;72.10;;;;;;5038253;28;20362;-74
2021/07/22 11:59:31;;;;;;;8.40;6.40;;;24.60;70.50;;;;;;5043776;28;20033;-75
2021/07/22 12:01:58;;;;;;;8.18;6.47;;;24.40;73.60;;;;;;5077349;28;20028;-76
2021/07/22 12:04:25;;;;;;;8.25;6.57;;;24.40;73.70;;;;;;5077692;28;20437;-75
2021/07/22 12:06:54;;;;;;;8.50;6.68;;;24.40;74.80;;;;;;5043932;28;20059;-75
2021/07/22 12:09:19;;;;;;;8.38;6.57;;;24.30;73.40;;;;;;5045774;28;20040;-75
2021/07/22 12:11:50;;;;;;;9.93;6.85;;;24.30;73.30;;;;;;5044519;28;20029;-75
2021/07/22 12:14:35;;;;;;;9.60;6.80;;;24.40;70.80;;;;;;5045108;28;20132;-74
2021/07/22 12:17:11;;;;;;;9.02;6.82;;;24.70;79.80;;;;;;5077429;28;21841;-75
2021/07/22 12:19:39;;;;;;;8.55;6.40;;;24.80;70.00;;;;;;5043032;28;20490;-70
2021/07/22 12:22:31;;;;;;;9.43;6.72;;;24.80;69.10;;;;;;5044865;28;20036;-70
2021/07/22 12:25:08;;;;;;;;;;;24.80;69.80;;;;;;5045353;28;20052;-74
2021/07/22 12:27:35;;;;;;;10.13;7.15;;;24.80;73.20;;;;;;5044956;28;19917;-74
2021/07/22 12:30:16;;;;;;;8.00;6.07;;;24.60;72.10;;;;;;5043417;28;20139;-74
2021/07/22 12:32:49;;;;;;;9.75;6.60;;;24.70;73.00;;;;;;5077928;28;20477;-74
2021/07/22 12:35:44;;;;;;;8.43;6.30;;;24.60;69.00;;;;;;5043460;28;20500;-75
2021/07/22 12:38:22;;;;;;;8.50;6.38;;;24.50;71.50;;;;;;5045517;28;20020;-75
2021/07/22 12:41:04;;;;;;;8.60;6.40;;;24.40;69.80;;;;;;5049625;28;20481;-75
2021/07/22 12:43:46;;;;;;;9.60;6.75;;;24.40;72.20;;;;;;5044010;28;20029;-75
2021/07/22 12:46:16;;;;;;;10.50;6.47;;;24.40;71.60;;;;;;5078501;28;20055;-74
2021/07/22 12:48:42;;;;;;;8.30;6.70;;;24.40;71.70;;;;;;5081025;28;20029;-74